Earlston, United Kingdom
Current Conditions -  °F | °C
As of 5:50 AM on Saturday 20 Dec 2014 (Local Time) from EGPH Reporting Station
Clear Clear  
Wind Chill: 33°   Ceiling: Unl
Heat Index: 41°   Visibility: 6mi
Dew Point: 34°   Wind: 15mph
Humidity: 76%   Direction: 270°W
Pressure: 29.88"   Gusts: NA
Location:  55.64°N, 2.67°W
Report Text: EGPH 200550Z 27013KT CAVOK 05/01 Q1012
Loading
Personal Weather Stations






























Interactive Weather Map New forecast layout! Learn more

10-Day Weather Forecast

Advertisements
Track Severe Weather on mobile